createdAt,value
2019-02-19T00:01:04.124Z,8.00
2019-02-19T00:03:37.056Z,7.90
2019-02-19T00:06:10.018Z,7.90
2019-02-19T00:08:43.165Z,7.90
2019-02-19T00:11:16.465Z,7.90
2019-02-19T00:13:49.348Z,7.90
2019-02-19T00:16:22.310Z,7.80
2019-02-19T00:18:55.055Z,7.80
2019-02-19T00:21:27.890Z,7.80
2019-02-19T00:24:00.968Z,7.70
2019-02-19T00:26:33.989Z,7.70
2019-02-19T00:29:06.964Z,7.70
2019-02-19T00:31:39.929Z,7.80
2019-02-19T00:34:12.854Z,7.80
2019-02-19T00:36:45.633Z,7.80
2019-02-19T00:39:18.621Z,7.80
2019-02-19T00:41:51.505Z,7.80
2019-02-19T00:44:24.434Z,7.80
2019-02-19T00:46:57.321Z,7.80
2019-02-19T00:49:30.137Z,7.80
2019-02-19T00:52:03.221Z,7.70
2019-02-19T00:54:36.068Z,7.70
2019-02-19T00:57:09.049Z,7.70
2019-02-19T00:59:41.864Z,7.70
2019-02-19T01:02:14.919Z,7.70
2019-02-19T01:04:47.850Z,7.60
2019-02-19T01:07:24.304Z,7.60
2019-02-19T01:09:57.547Z,7.50
2019-02-19T01:12:30.805Z,7.50
2019-02-19T01:15:04.237Z,7.50
2019-02-19T01:17:37.189Z,7.60
2019-02-19T01:20:10.185Z,7.60
2019-02-19T01:22:43.129Z,7.70
2019-02-19T01:25:16.095Z,7.70
2019-02-19T01:27:48.995Z,7.70
2019-02-19T01:30:22.116Z,7.70
2019-02-19T01:32:55.153Z,7.60
2019-02-19T01:35:27.999Z,7.60
2019-02-19T01:38:00.979Z,7.60
2019-02-19T01:40:33.756Z,7.50
2019-02-19T01:43:06.759Z,7.50
2019-02-19T01:45:39.565Z,7.50
2019-02-19T01:48:12.625Z,7.50
2019-02-19T01:50:45.399Z,7.40
2019-02-19T01:53:18.486Z,7.40
2019-02-19T01:55:51.372Z,7.30
2019-02-19T01:58:24.372Z,7.40
2019-02-19T02:00:57.577Z,7.40
2019-02-19T02:03:30.625Z,7.40
2019-02-19T02:06:03.661Z,7.40
2019-02-19T02:08:36.717Z,7.30
2019-02-19T02:11:09.677Z,7.40
2019-02-19T02:13:42.726Z,7.40
2019-02-19T02:16:15.546Z,7.40
2019-02-19T02:18:48.390Z,7.30
2019-02-19T02:21:21.350Z,7.30
2019-02-19T02:23:54.282Z,7.30
2019-02-19T02:26:27.171Z,7.30
2019-02-19T02:29:00.176Z,7.20
2019-02-19T02:31:33.102Z,7.20
2019-02-19T02:34:06.101Z,7.20
2019-02-19T02:36:38.927Z,7.30
2019-02-19T02:39:11.946Z,7.20
2019-02-19T02:41:44.676Z,7.20
2019-02-19T02:44:17.676Z,7.20
2019-02-19T02:46:50.601Z,7.30
2019-02-19T02:49:23.554Z,7.30
2019-02-19T02:51:56.492Z,7.30
2019-02-19T02:54:29.450Z,7.50
2019-02-19T02:57:03.054Z,7.60
2019-02-19T02:59:36.151Z,7.60
2019-02-19T03:02:08.949Z,7.70
2019-02-19T03:04:42.737Z,7.70
2019-02-19T03:07:23.720Z,7.90
2019-02-19T03:09:56.795Z,7.90
2019-02-19T03:12:29.589Z,7.90
2019-02-19T03:15:02.990Z,7.90
2019-02-19T03:17:36.176Z,7.90
2019-02-19T03:20:09.037Z,8.00
2019-02-19T03:22:41.911Z,8.00
2019-02-19T03:25:14.774Z,8.10
2019-02-19T03:27:47.645Z,8.10
2019-02-19T03:30:20.487Z,8.10
2019-02-19T03:32:54.348Z,8.10
2019-02-19T03:35:27.316Z,8.10
2019-02-19T03:38:00.157Z,8.20
2019-02-19T03:40:33.224Z,8.10
2019-02-19T03:43:06.243Z,8.10
2019-02-19T03:45:39.352Z,8.20
2019-02-19T03:48:12.398Z,8.20
2019-02-19T03:50:45.282Z,8.20
2019-02-19T03:53:18.177Z,8.30
2019-02-19T03:55:51.013Z,8.30
2019-02-19T03:58:24.011Z,8.30
2019-02-19T04:00:56.884Z,8.30
2019-02-19T04:03:29.792Z,8.30
2019-02-19T04:06:02.568Z,8.30
2019-02-19T04:08:35.359Z,8.30
2019-02-19T04:11:08.277Z,8.30
2019-02-19T04:13:41.299Z,8.30
2019-02-19T04:16:21.131Z,8.30
2019-02-19T04:18:48.775Z,8.30
2019-02-19T04:21:21.722Z,8.40
2019-02-19T04:23:54.430Z,8.30
2019-02-19T04:26:27.388Z,8.40
2019-02-19T04:29:00.482Z,8.40
2019-02-19T04:31:33.593Z,8.40
2019-02-19T04:34:06.719Z,8.40
2019-02-19T04:36:39.799Z,8.40
2019-02-19T04:39:12.712Z,8.30
2019-02-19T04:41:46.040Z,8.30
2019-02-19T04:44:18.870Z,8.30
2019-02-19T04:46:51.756Z,8.30
2019-02-19T04:49:24.688Z,8.20
2019-02-19T04:51:57.523Z,8.00
2019-02-19T04:54:30.305Z,8.00
2019-02-19T04:57:03.327Z,7.90
2019-02-19T04:59:36.177Z,7.80
2019-02-19T05:02:09.250Z,7.70
2019-02-19T05:04:42.129Z,7.60
2019-02-19T05:07:15.318Z,7.40
2019-02-19T05:09:48.481Z,7.30
2019-02-19T05:12:21.602Z,7.20
2019-02-19T05:14:54.589Z,7.20
2019-02-19T05:17:27.445Z,7.20
2019-02-19T05:20:00.294Z,7.20
2019-02-19T05:22:33.199Z,7.20
2019-02-19T05:25:06.209Z,7.10
2019-02-19T05:27:39.130Z,7.10
2019-02-19T05:30:12.109Z,7.10
2019-02-19T05:32:44.840Z,7.10
2019-02-19T05:35:17.938Z,7.20
2019-02-19T05:37:50.945Z,7.20
2019-02-19T05:40:24.825Z,7.30
2019-02-19T05:42:58.059Z,7.30
2019-02-19T05:45:31.003Z,7.30
2019-02-19T05:48:05.340Z,7.30
2019-02-19T05:50:38.545Z,7.20
2019-02-19T05:53:11.400Z,7.30
2019-02-19T05:55:44.325Z,7.30
2019-02-19T05:58:17.423Z,7.30
2019-02-19T06:00:50.317Z,7.40
2019-02-19T06:03:23.194Z,7.50
2019-02-19T06:05:56.098Z,7.60
2019-02-19T06:08:29.154Z,7.60
2019-02-19T06:11:01.958Z,7.50
2019-02-19T06:13:34.695Z,7.50
2019-02-19T06:16:07.576Z,7.50
2019-02-19T06:18:40.554Z,7.40
2019-02-19T06:21:13.420Z,7.40
2019-02-19T06:23:46.256Z,7.40
2019-02-19T06:26:19.127Z,7.50
2019-02-19T06:28:52.250Z,7.50
2019-02-19T06:31:25.151Z,7.40
2019-02-19T06:33:57.955Z,7.30
2019-02-19T06:36:30.751Z,7.30
2019-02-19T06:39:04.660Z,7.30
2019-02-19T06:41:37.729Z,7.40
2019-02-19T06:44:10.755Z,7.40
2019-02-19T06:46:43.575Z,7.40
2019-02-19T06:49:16.456Z,7.40
2019-02-19T06:51:49.605Z,7.40
2019-02-19T06:54:22.679Z,7.40
2019-02-19T06:56:55.885Z,7.40
2019-02-19T06:59:29.269Z,7.30
2019-02-19T07:02:11.495Z,7.30
2019-02-19T07:04:48.759Z,7.30
2019-02-19T07:07:21.786Z,7.20
2019-02-19T07:09:54.875Z,7.20
2019-02-19T07:12:27.974Z,7.20
2019-02-19T07:15:01.078Z,7.20
2019-02-19T07:17:34.251Z,7.30
2019-02-19T07:20:07.476Z,7.20
2019-02-19T07:22:40.470Z,7.30
2019-02-19T07:25:13.561Z,7.30
2019-02-19T07:27:46.367Z,7.40
2019-02-19T07:30:19.255Z,7.40
2019-02-19T07:32:52.016Z,7.40
2019-02-19T07:35:24.989Z,7.40
2019-02-19T07:37:57.791Z,7.50
2019-02-19T07:40:30.702Z,7.50
2019-02-19T07:43:03.523Z,7.60
2019-02-19T07:45:36.402Z,7.70
2019-02-19T07:48:09.389Z,7.70
2019-02-19T07:50:42.490Z,7.80
2019-02-19T07:53:15.609Z,7.80
2019-02-19T07:55:48.578Z,7.90
2019-02-19T07:58:21.475Z,8.00
2019-02-19T08:00:54.690Z,8.00
2019-02-19T08:03:27.850Z,8.00
2019-02-19T08:06:00.813Z,8.00
2019-02-19T08:08:33.993Z,8.00
2019-02-19T08:11:07.366Z,8.10
2019-02-19T08:13:40.455Z,8.10
2019-02-19T08:16:13.430Z,8.20
2019-02-19T08:18:46.397Z,8.20
2019-02-19T08:21:19.415Z,8.20
2019-02-19T08:23:53.292Z,8.30
2019-02-19T08:26:26.227Z,8.30
2019-02-19T08:29:07.138Z,8.40
2019-02-19T08:31:34.376Z,8.40
2019-02-19T08:34:07.221Z,8.50
2019-02-19T08:36:40.143Z,8.50
2019-02-19T08:39:13.346Z,8.60
2019-02-19T08:41:46.620Z,8.50
2019-02-19T08:44:19.566Z,8.50
2019-02-19T08:46:52.582Z,8.40
2019-02-19T08:49:25.608Z,8.50
2019-02-19T08:51:58.686Z,8.60
2019-02-19T08:54:31.862Z,8.60
2019-02-19T08:57:04.922Z,8.70
2019-02-19T08:59:38.119Z,8.80
2019-02-19T09:02:11.248Z,8.90
2019-02-19T09:04:44.311Z,9.00
2019-02-19T09:07:17.304Z,9.30
2019-02-19T09:09:50.276Z,9.10
2019-02-19T09:12:23.108Z,9.10
2019-02-19T09:14:56.064Z,9.10
2019-02-19T09:17:29.289Z,9.20
2019-02-19T09:20:02.322Z,9.30
2019-02-19T09:22:35.575Z,9.30
2019-02-19T09:25:08.863Z,9.50
2019-02-19T09:27:43.317Z,9.60
2019-02-19T09:30:16.788Z,9.40
2019-02-19T09:32:50.111Z,9.20
2019-02-19T09:35:23.135Z,9.20
2019-02-19T09:37:56.331Z,9.40
2019-02-19T09:40:29.313Z,9.60
2019-02-19T09:43:02.331Z,9.70
2019-02-19T09:45:35.437Z,9.80
2019-02-19T09:48:08.422Z,9.70
2019-02-19T09:50:41.458Z,9.60
2019-02-19T09:53:14.710Z,9.60
2019-02-19T09:55:47.738Z,9.50
2019-02-19T09:58:20.873Z,9.50
2019-02-19T10:00:54.087Z,9.40
2019-02-19T10:03:27.195Z,9.50
2019-02-19T10:06:00.344Z,9.60
2019-02-19T10:08:34.560Z,10.00
2019-02-19T10:11:07.443Z,10.10
2019-02-19T10:13:40.712Z,10.50
2019-02-19T10:16:13.690Z,10.70
2019-02-19T10:18:46.832Z,10.50
2019-02-19T10:21:19.740Z,10.80
2019-02-19T10:23:52.703Z,10.60
2019-02-19T10:26:25.772Z,10.90
2019-02-19T10:28:58.689Z,11.10
2019-02-19T10:31:31.661Z,11.00
2019-02-19T10:34:04.726Z,11.00
2019-02-19T10:36:38.710Z,10.90
2019-02-19T10:39:12.037Z,11.00
2019-02-19T10:41:45.347Z,10.50
2019-02-19T10:44:18.208Z,10.80
2019-02-19T10:46:51.047Z,11.30
2019-02-19T10:49:24.095Z,11.50
2019-02-19T10:51:57.025Z,11.70
2019-02-19T10:54:29.875Z,11.70
2019-02-19T10:57:03.028Z,12.10
2019-02-19T10:59:36.120Z,12.30
2019-02-19T11:02:09.070Z,12.70
2019-02-19T11:04:42.105Z,12.60
2019-02-19T11:07:15.080Z,12.60
2019-02-19T11:09:48.271Z,12.30
2019-02-19T11:12:22.240Z,12.60
2019-02-19T11:14:55.325Z,12.70
2019-02-19T11:17:29.153Z,13.30
2019-02-19T11:20:02.141Z,13.10
2019-02-19T11:22:35.246Z,12.90
2019-02-19T11:25:09.907Z,13.50
2019-02-19T11:27:42.864Z,13.50
2019-02-19T11:30:16.123Z,13.00
2019-02-19T11:32:49.131Z,13.30
2019-02-19T11:35:22.086Z,13.30
2019-02-19T11:37:55.061Z,13.50
2019-02-19T11:40:27.857Z,13.70
2019-02-19T11:43:00.768Z,13.70
2019-02-19T11:45:33.799Z,13.50
2019-02-19T11:48:07.023Z,13.80
2019-02-19T11:50:40.088Z,14.30
2019-02-19T11:53:13.184Z,14.70
2019-02-19T11:55:46.098Z,14.50
2019-02-19T11:58:18.973Z,14.30
2019-02-19T12:00:51.994Z,14.00
2019-02-19T12:03:25.465Z,14.10
2019-02-19T12:05:58.726Z,14.20
2019-02-19T12:08:38.826Z,14.40
2019-02-19T12:11:06.581Z,14.30
2019-02-19T12:13:39.624Z,13.50
2019-02-19T12:16:12.628Z,13.10
2019-02-19T12:18:46.440Z,12.90
2019-02-19T12:21:19.886Z,13.00
2019-02-19T12:23:52.689Z,13.10
2019-02-19T12:26:25.920Z,13.40
2019-02-19T12:28:59.973Z,14.00
2019-02-19T12:31:32.931Z,14.60
2019-02-19T12:34:06.087Z,14.10
2019-02-19T12:36:39.069Z,14.00
2019-02-19T12:39:12.059Z,14.20
2019-02-19T12:41:45.291Z,14.30
2019-02-19T12:44:18.435Z,14.20
2019-02-19T12:46:51.530Z,13.70
2019-02-19T12:49:24.446Z,13.40
2019-02-19T12:51:57.869Z,12.60
2019-02-19T12:54:30.922Z,12.00
2019-02-19T12:57:03.915Z,11.70
2019-02-19T12:59:36.894Z,11.70
2019-02-19T13:02:11.166Z,12.00
2019-02-19T13:04:44.265Z,12.50
2019-02-19T13:07:17.503Z,12.60
2019-02-19T13:09:50.661Z,12.50
2019-02-19T13:12:23.623Z,13.20
2019-02-19T13:14:56.731Z,13.50
2019-02-19T13:17:29.828Z,13.50
2019-02-19T13:20:03.217Z,13.30
2019-02-19T13:22:36.416Z,13.50
2019-02-19T13:25:10.011Z,13.30
2019-02-19T13:27:43.231Z,12.90
2019-02-19T13:30:16.098Z,12.80
2019-02-19T13:32:49.236Z,12.70
2019-02-19T13:35:22.166Z,12.60
2019-02-19T13:37:55.299Z,12.40
2019-02-19T13:40:28.473Z,12.00
2019-02-19T13:43:01.433Z,12.70
2019-02-19T13:45:34.466Z,13.80
2019-02-19T13:48:07.456Z,14.10
2019-02-19T13:50:40.403Z,13.40
2019-02-19T13:53:18.354Z,13.20
2019-02-19T13:55:53.745Z,12.90
2019-02-19T13:58:26.695Z,12.20
2019-02-19T14:00:59.947Z,12.20
2019-02-19T14:03:32.952Z,11.90
2019-02-19T14:06:06.093Z,11.80
2019-02-19T14:08:39.222Z,11.80
2019-02-19T14:11:12.447Z,12.40
2019-02-19T14:13:57.339Z,13.10
2019-02-19T14:16:37.738Z,13.50
2019-02-19T14:19:36.120Z,13.60
2019-02-19T14:22:40.907Z,14.50
2019-02-19T14:25:42.806Z,15.70
2019-02-19T14:28:43.383Z,15.30
2019-02-19T14:31:41.856Z,15.60
2019-02-19T14:34:33.133Z,15.10
2019-02-19T14:37:24.120Z,16.00
2019-02-19T14:40:10.693Z,16.40
2019-02-19T14:43:03.387Z,16.20
2019-02-19T14:45:58.721Z,15.10
2019-02-19T14:48:52.196Z,15.00
2019-02-19T14:51:56.478Z,15.60
2019-02-19T14:54:47.949Z,16.30
2019-02-19T14:57:34.938Z,16.30
2019-02-19T15:00:19.674Z,16.40
2019-02-19T15:03:15.309Z,17.00
2019-02-19T15:05:59.403Z,17.40
2019-02-19T15:08:48.824Z,17.20
2019-02-19T15:11:39.614Z,16.40
2019-02-19T15:14:34.877Z,15.00
2019-02-19T15:17:27.323Z,14.10
2019-02-19T15:20:18.786Z,13.30
2019-02-19T15:23:14.102Z,12.60
2019-02-19T15:26:01.243Z,11.90
2019-02-19T15:28:53.648Z,11.70
2019-02-19T15:31:46.141Z,11.70
2019-02-19T15:34:57.080Z,12.00
2019-02-19T15:37:40.947Z,12.30
2019-02-19T15:40:36.528Z,12.30
2019-02-19T15:43:29.324Z,12.20
2019-02-19T15:46:20.424Z,11.90
2019-02-19T15:49:11.855Z,11.70
2019-02-19T15:52:16.517Z,11.50
2019-02-19T15:55:15.136Z,11.50
2019-02-19T15:58:07.509Z,11.40
2019-02-19T16:00:42.970Z,11.30
2019-02-19T16:03:30.768Z,11.20
2019-02-19T16:06:23.407Z,11.10
2019-02-19T16:09:06.397Z,10.90
2019-02-19T16:12:00.620Z,10.80
2019-02-19T16:14:56.151Z,10.70
2019-02-19T16:17:47.448Z,10.60
2019-02-19T16:20:42.320Z,10.60
2019-02-19T16:23:33.545Z,10.50
2019-02-19T16:26:19.168Z,10.60
2019-02-19T16:29:02.059Z,10.50
2019-02-19T16:31:54.620Z,10.40
2019-02-19T16:34:48.582Z,10.30
2019-02-19T16:37:39.858Z,10.20
2019-02-19T16:40:35.768Z,10.10
2019-02-19T16:43:37.158Z,10.10
2019-02-19T16:46:25.375Z,10.00
2019-02-19T16:49:08.248Z,9.90
2019-02-19T16:51:51.948Z,9.90
2019-02-19T16:54:38.413Z,9.80
2019-02-19T16:57:17.915Z,9.80
2019-02-19T17:00:16.284Z,9.70
2019-02-19T17:03:00.811Z,9.70
2019-02-19T17:05:56.364Z,9.60
2019-02-19T17:08:38.778Z,9.60
2019-02-19T17:11:20.985Z,9.50
2019-02-19T17:14:13.668Z,9.40
2019-02-19T17:17:15.093Z,9.30
2019-02-19T17:20:29.202Z,9.30
2019-02-19T17:23:10.629Z,9.30
2019-02-19T17:26:01.776Z,9.10
2019-02-19T17:28:43.053Z,9.10
2019-02-19T17:31:44.080Z,9.00
2019-02-19T17:34:42.349Z,9.00
2019-02-19T17:37:33.819Z,8.80
2019-02-19T17:40:25.239Z,8.80
2019-02-19T17:43:12.870Z,8.70
2019-02-19T17:46:08.974Z,8.60
2019-02-19T17:49:10.438Z,8.60
2019-02-19T17:52:05.759Z,8.60
2019-02-19T17:54:57.070Z,8.50
2019-02-19T17:57:39.649Z,8.40
2019-02-19T18:00:32.035Z,8.40
2019-02-19T18:03:17.410Z,8.30
2019-02-19T18:06:08.647Z,8.20
2019-02-19T18:08:53.004Z,8.20
2019-02-19T18:11:44.011Z,8.10
2019-02-19T18:14:42.535Z,8.00
2019-02-19T18:17:26.459Z,7.90
2019-02-19T18:19:59.468Z,7.90
2019-02-19T18:22:32.516Z,7.90
2019-02-19T18:25:05.888Z,7.90
2019-02-19T18:27:38.876Z,7.80
2019-02-19T18:30:12.064Z,7.70
2019-02-19T18:32:44.989Z,7.60
2019-02-19T18:35:18.096Z,7.60
2019-02-19T18:37:51.134Z,7.60
2019-02-19T18:40:24.029Z,7.50
2019-02-19T18:42:57.082Z,7.50
2019-02-19T18:45:30.085Z,7.50
2019-02-19T18:48:03.010Z,7.40
2019-02-19T18:50:35.980Z,7.30
2019-02-19T18:53:09.208Z,7.30
2019-02-19T18:55:42.101Z,7.20
2019-02-19T18:58:15.159Z,7.20
2019-02-19T19:00:48.389Z,7.10
2019-02-19T19:03:21.455Z,7.00
2019-02-19T19:05:54.521Z,7.00
2019-02-19T19:08:27.767Z,7.00
2019-02-19T19:11:01.006Z,7.00
2019-02-19T19:13:33.995Z,6.90
2019-02-19T19:16:07.186Z,6.90
2019-02-19T19:18:40.491Z,6.90
2019-02-19T19:21:13.332Z,6.80
2019-02-19T19:23:46.689Z,6.80
2019-02-19T19:26:19.842Z,6.80
2019-02-19T19:28:52.936Z,6.70
2019-02-19T19:31:33.187Z,6.70
2019-02-19T19:34:00.875Z,6.70
2019-02-19T19:36:33.872Z,6.60
2019-02-19T19:39:07.109Z,6.60
2019-02-19T19:41:41.911Z,6.60
2019-02-19T19:44:15.022Z,6.50
2019-02-19T19:46:48.103Z,6.50
2019-02-19T19:49:21.201Z,6.50
2019-02-19T19:51:55.886Z,6.50
2019-02-19T19:54:28.768Z,6.50
2019-02-19T19:57:01.942Z,6.50
2019-02-19T19:59:35.400Z,6.50
2019-02-19T20:02:08.893Z,6.50
2019-02-19T20:04:41.928Z,6.40
2019-02-19T20:07:15.385Z,6.40
2019-02-19T20:09:48.323Z,6.40
2019-02-19T20:12:21.172Z,6.30
2019-02-19T20:14:54.191Z,6.20
2019-02-19T20:17:27.201Z,6.20
2019-02-19T20:20:00.302Z,6.20
2019-02-19T20:22:33.258Z,6.20
2019-02-19T20:25:08.392Z,6.20
2019-02-19T20:27:41.347Z,6.20
2019-02-19T20:30:14.567Z,6.10
2019-02-19T20:32:47.612Z,6.10
2019-02-19T20:35:20.632Z,6.00
2019-02-19T20:37:54.294Z,6.00
2019-02-19T20:40:27.563Z,6.00
2019-02-19T20:43:00.794Z,5.90
2019-02-19T20:45:34.198Z,5.90
2019-02-19T20:48:07.059Z,5.80
2019-02-19T20:50:39.915Z,5.80
2019-02-19T20:53:12.947Z,5.70
2019-02-19T20:55:45.823Z,5.70
2019-02-19T20:58:18.693Z,5.60
2019-02-19T21:00:53.278Z,5.60
2019-02-19T21:03:26.396Z,5.50
2019-02-19T21:05:59.310Z,5.50
2019-02-19T21:08:33.893Z,5.40
2019-02-19T21:11:06.799Z,5.40
2019-02-19T21:13:40.167Z,5.40
2019-02-19T21:16:13.217Z,5.40
2019-02-19T21:18:46.336Z,5.30
2019-02-19T21:21:19.295Z,5.30
2019-02-19T21:23:52.564Z,5.30
2019-02-19T21:26:25.616Z,5.10
2019-02-19T21:28:58.527Z,5.10
2019-02-19T21:31:31.717Z,5.10
2019-02-19T21:34:04.468Z,5.10
2019-02-19T21:36:38.432Z,5.00
2019-02-19T21:39:12.779Z,5.00
2019-02-19T21:41:47.533Z,5.00
2019-02-19T21:44:20.662Z,5.00
2019-02-19T21:46:53.929Z,4.90
2019-02-19T21:49:26.853Z,4.90
2019-02-19T21:51:59.990Z,4.90
2019-02-19T21:54:33.318Z,4.90
2019-02-19T21:57:06.284Z,4.90
2019-02-19T21:59:39.374Z,4.80
2019-02-19T22:02:16.467Z,4.80
2019-02-19T22:04:47.332Z,4.70
2019-02-19T22:07:20.387Z,4.80
2019-02-19T22:09:53.502Z,4.70
2019-02-19T22:12:26.430Z,4.70
2019-02-19T22:14:59.402Z,4.60
2019-02-19T22:17:32.310Z,4.60
2019-02-19T22:20:08.594Z,4.60
2019-02-19T22:22:42.245Z,4.50
2019-02-19T22:25:15.166Z,4.50
2019-02-19T22:27:48.114Z,4.50
2019-02-19T22:30:22.058Z,4.50
2019-02-19T22:32:55.375Z,4.40
2019-02-19T22:35:28.523Z,4.40
2019-02-19T22:38:01.502Z,4.40
2019-02-19T22:40:34.345Z,4.50
2019-02-19T22:43:07.359Z,4.50
2019-02-19T22:45:40.429Z,4.40
2019-02-19T22:48:13.368Z,4.40
2019-02-19T22:50:46.333Z,4.40
2019-02-19T22:53:41.004Z,4.40
2019-02-19T22:56:20.854Z,4.40
2019-02-19T22:58:54.135Z,4.30
2019-02-19T23:01:39.434Z,4.30
2019-02-19T23:04:12.368Z,4.30
2019-02-19T23:06:45.342Z,4.20
2019-02-19T23:09:18.447Z,4.20
2019-02-19T23:11:51.571Z,4.20
2019-02-19T23:14:24.472Z,4.20
2019-02-19T23:16:57.453Z,4.20
2019-02-19T23:19:30.428Z,4.10
2019-02-19T23:22:03.321Z,4.20
2019-02-19T23:24:36.345Z,4.20
2019-02-19T23:27:09.471Z,4.30
2019-02-19T23:29:42.690Z,4.30
2019-02-19T23:32:15.590Z,4.30
2019-02-19T23:35:08.887Z,4.30
2019-02-19T23:37:41.939Z,4.40
2019-02-19T23:40:14.791Z,4.40
2019-02-19T23:42:47.785Z,4.40
2019-02-19T23:45:20.789Z,4.50
2019-02-19T23:47:53.820Z,4.50
2019-02-19T23:50:26.580Z,4.50
2019-02-19T23:52:59.495Z,4.50
2019-02-19T23:55:32.469Z,4.50
2019-02-19T23:58:05.334Z,4.50
